Ekin-s — TCMW3 — position and weather

sailwx.info

Track history (hours):
 
Tides and Currents Weather Stations Pressure Air Temp Water Temp Dewpoint Dewpoint Depression Visibility Wind Speed Wind Dir Waves Ship Positions

Ekin-s

Last reported at 2015-Jun-30 03:31 UTC. Time now 2015-Jul-02 16:33 UTC.
Position N 36°30' E 015°40'.

Length 109 m; draft 6.9 m.

Type: Ship (hazmat cat B). MMSI: 271042836.

Date/timePositionNaut miles runAvg speedWind from/ knotsBaromVisibWave heightAir tempDewpointWater temp
2015-Jun-30 03:31N 36°30' E 015°40'1212.1
2015-Jun-30 02:33N 36°29' E 015°25'1211.7
2015-Jun-30 01:32N 36°31' E 015°11'1111.6
2015-Jun-30 00:33N 36°33' E 014°57'1212.0
2015-Jun-29 23:33N 36°36' E 014°42'1212.1
2015-Jun-29 22:34N 36°39' E 014°28'1211.8
2015-Jun-29 21:33N 36°42' E 014°14'1211.6
2015-Jun-29 20:33N 36°44' E 013°60'1212.2
2015-Jun-29 19:33N 36°47' E 013°45'1212.2
2015-Jun-29 18:33N 36°50' E 013°30'1212.2
2015-Jun-29 17:33N 36°54' E 013°16'1212.2
2015-Jun-29 16:33N 36°56' E 013°01'1212.3
2015-Jun-29 15:33N 36°59' E 012°46'1212.1
2015-Jun-29 14:33N 37°02' E 012°31'1211.8
2015-Jun-29 13:33N 37°05' E 012°17'1111.5
2015-Jun-29 12:33N 37°08' E 012°03'1211.6
2015-Jun-29 11:33N 37°11' E 011°49'1211.6
2015-Jun-29 10:33N 37°14' E 011°35'1211.9
2015-Jun-29 09:33N 37°17' E 011°21'1212.3
2015-Jun-29 08:33N 37°23' E 011°07'7012.9
2015-Jun-29 03:09N 37°36' E 009°40'813.1
2015-Jun-29 02:32N 37°36' E 009°30'6212.2
2015-Jun-28 21:27N 37°36' E 008°12'19411.9
2015-Jun-28 05:08N 37°15' E 004°09'811.9
2015-Jun-28 04:30N 37°15' E 003°60'2411.5
2015-Jun-28 02:22N 37°13' E 003°29'1011.9
2015-Jun-28 01:33N 37°12' E 003°17'1212.2
2015-Jun-28 00:33N 37°10' E 003°02'1212.0
2015-Jun-27 23:33N 37°07' E 002°47'4911.9
2015-Jun-27 19:25N 36°58' E 001°47'1011.6
2015-Jun-27 18:33N 36°56' E 001°34'1211.8
2015-Jun-27 17:32N 36°54' E 001°20'1111.6
2015-Jun-27 16:33N 36°52' E 001°06'1211.8
2015-Jun-27 15:33N 36°49' E 000°51'1212.2
2015-Jun-27 14:33N 36°47' E 000°36'1212.4
2015-Jun-27 13:33N 36°45' E 000°21'1212.1
2015-Jun-27 12:33N 36°42' E 000°06'1212.1
2015-Jun-27 11:33N 36°40' W 000°09'1211.9
2015-Jun-27 10:33N 36°38' W 000°23'1211.6
2015-Jun-27 09:33N 36°36' W 000°37'1511.6
2015-Jun-27 08:14N 36°33' W 000°56'811.8
2015-Jun-27 07:32N 36°31' W 001°06'1111.7
2015-Jun-27 06:33N 36°29' W 001°20'1211.8
2015-Jun-27 05:33N 36°27' W 001°35'1311.7
2015-Jun-27 04:28N 36°24' W 001°50'1011.5
2015-Jun-27 03:33N 36°22' W 002°03'1211.6
2015-Jun-27 02:33N 36°20' W 002°17'1111.4
2015-Jun-27 01:34N 36°18' W 002°31'1211.8
2015-Jun-27 00:33N 36°17' W 002°45'1212.0
2015-Jun-26 23:34N 36°15' W 003°00'11312.5
2015-Jun-26 14:33N 35°56' W 005°18'2 2.2
2015-Jun-26 13:31N 35°54' W 005°18'0 0.0
2015-Jun-26 12:31N 35°54' W 005°18'0 0.2
2015-Jun-26 11:33N 35°54' W 005°19'2 1.5
2015-Jun-26 10:33N 35°55' W 005°19'7 7.0
2015-Jun-26 09:33N 36°02' W 005°21'9 8.7
2015-Jun-26 08:32N 36°11' W 005°24'0 0.0
2015-Jun-25 09:07N 36°11' W 005°24'1 0.1
2015-Jun-25 00:17N 36°10' W 005°25'3 1.7
2015-Jun-24 22:33N 36°08' W 005°23'10 9.9
2015-Jun-24 21:33N 35°58' W 005°27'22611.6
2015-Jun-24 02:05N 37°23' W 009°48'5213.1
2015-Jun-23 22:09N 38°13' W 010°03'813.0
2015-Jun-23 21:33N 38°21' W 010°05'1312.7
2015-Jun-23 20:33N 38°33' W 010°09'1313.0
2015-Jun-23 19:33N 38°46' W 010°11'612.7
2015-Jun-23 19:05N 38°52' W 010°11'94 2.3
2015-Jun-22 02:14N 40°19' W 009°25'1312.5
2015-Jun-22 01:14N 40°07' W 009°31'812.3
2015-Jun-22 00:33N 39°59' W 009°35'1212.4
2015-Jun-21 23:33N 39°48' W 009°41'1212.2
2015-Jun-21 22:33N 39°37' W 009°47'1212.1
2015-Jun-21 21:33N 39°25' W 009°49'1211.8
2015-Jun-21 20:33N 39°13' W 009°50'1211.7
2015-Jun-21 19:33N 39°01' W 009°49'1212.2
2015-Jun-21 18:33N 38°49' W 009°49'1211.8
2015-Jun-21 17:33N 38°37' W 009°48'1212.1
2015-Jun-21 16:33N 38°25' W 009°44'1212.1
2015-Jun-21 15:33N 38°14' W 009°41'1212.3
2015-Jun-21 14:33N 38°02' W 009°37'1212.5
2015-Jun-21 13:33N 37°50' W 009°34'1212.5
2015-Jun-21 12:33N 37°37' W 009°30'1312.7
2015-Jun-21 11:33N 37°25' W 009°27'1412.7
2015-Jun-21 10:27N 37°11' W 009°23'1112.4
2015-Jun-21 09:33N 37°00' W 009°20'1211.9
2015-Jun-21 08:32N 36°50' W 009°13'1211.9
2015-Jun-21 07:30N 36°43' W 009°00'1212.3
2015-Jun-21 06:33N 36°41' W 008°46'1312.4
2015-Jun-21 05:30N 36°40' W 008°30'1313.0
2015-Jun-21 04:31N 36°40' W 008°14'1312.8
2015-Jun-21 03:29N 36°39' W 007°57'1212.8
2015-Jun-21 02:33N 36°40' W 007°42'1613.0
2015-Jun-21 01:19N 36°42' W 007°23'1512.8
2015-Jun-21 00:07N 36°45' W 007°04'3212.5
2015-Jun-20 21:32N 36°47' W 006°23'  
Track history (hours):
 
Tides and Currents Weather Stations Pressure Air Temp Water Temp Dewpoint Dewpoint Depression Visibility Wind Speed Wind Dir Waves Ship Positions

Ekin-s

Last reported at 2015-Jun-30 03:31 UTC. Time now 2015-Jul-02 16:33 UTC.
Position N 36°30' E 015°40'.

Length 109 m; draft 6.9 m.

Type: Ship (hazmat cat B). MMSI: 271042836.

Date/timePositionNaut miles runAvg speedWind from/ knotsBaromVisibWave heightAir tempDewpointWater temp
2015-Jun-30 03:31N 36°30' E 015°40'1212.1
2015-Jun-30 02:33N 36°29' E 015°25'1211.7
2015-Jun-30 01:32N 36°31' E 015°11'1111.6
2015-Jun-30 00:33N 36°33' E 014°57'1212.0
2015-Jun-29 23:33N 36°36' E 014°42'1212.1
2015-Jun-29 22:34N 36°39' E 014°28'1211.8
2015-Jun-29 21:33N 36°42' E 014°14'1211.6
2015-Jun-29 20:33N 36°44' E 013°60'1212.2
2015-Jun-29 19:33N 36°47' E 013°45'1212.2
2015-Jun-29 18:33N 36°50' E 013°30'1212.2
2015-Jun-29 17:33N 36°54' E 013°16'1212.2
2015-Jun-29 16:33N 36°56' E 013°01'1212.3
2015-Jun-29 15:33N 36°59' E 012°46'1212.1
2015-Jun-29 14:33N 37°02' E 012°31'1211.8
2015-Jun-29 13:33N 37°05' E 012°17'1111.5
2015-Jun-29 12:33N 37°08' E 012°03'1211.6
2015-Jun-29 11:33N 37°11' E 011°49'1211.6
2015-Jun-29 10:33N 37°14' E 011°35'1211.9
2015-Jun-29 09:33N 37°17' E 011°21'1212.3
2015-Jun-29 08:33N 37°23' E 011°07'7012.9
2015-Jun-29 03:09N 37°36' E 009°40'813.1
2015-Jun-29 02:32N 37°36' E 009°30'6212.2
2015-Jun-28 21:27N 37°36' E 008°12'19411.9
2015-Jun-28 05:08N 37°15' E 004°09'811.9
2015-Jun-28 04:30N 37°15' E 003°60'2411.5
2015-Jun-28 02:22N 37°13' E 003°29'1011.9
2015-Jun-28 01:33N 37°12' E 003°17'1212.2
2015-Jun-28 00:33N 37°10' E 003°02'1212.0
2015-Jun-27 23:33N 37°07' E 002°47'4911.9
2015-Jun-27 19:25N 36°58' E 001°47'1011.6
2015-Jun-27 18:33N 36°56' E 001°34'1211.8
2015-Jun-27 17:32N 36°54' E 001°20'1111.6
2015-Jun-27 16:33N 36°52' E 001°06'1211.8
2015-Jun-27 15:33N 36°49' E 000°51'1212.2
2015-Jun-27 14:33N 36°47' E 000°36'1212.4
2015-Jun-27 13:33N 36°45' E 000°21'1212.1
2015-Jun-27 12:33N 36°42' E 000°06'1212.1
2015-Jun-27 11:33N 36°40' W 000°09'1211.9
2015-Jun-27 10:33N 36°38' W 000°23'1211.6
2015-Jun-27 09:33N 36°36' W 000°37'1511.6
2015-Jun-27 08:14N 36°33' W 000°56'811.8
2015-Jun-27 07:32N 36°31' W 001°06'1111.7
2015-Jun-27 06:33N 36°29' W 001°20'1211.8
2015-Jun-27 05:33N 36°27' W 001°35'1311.7
2015-Jun-27 04:28N 36°24' W 001°50'1011.5
2015-Jun-27 03:33N 36°22' W 002°03'1211.6
2015-Jun-27 02:33N 36°20' W 002°17'1111.4
2015-Jun-27 01:34N 36°18' W 002°31'1211.8
2015-Jun-27 00:33N 36°17' W 002°45'1212.0
2015-Jun-26 23:34N 36°15' W 003°00'11312.5
2015-Jun-26 14:33N 35°56' W 005°18'2 2.2
2015-Jun-26 13:31N 35°54' W 005°18'0 0.0
2015-Jun-26 12:31N 35°54' W 005°18'0 0.2
2015-Jun-26 11:33N 35°54' W 005°19'2 1.5
2015-Jun-26 10:33N 35°55' W 005°19'7 7.0
2015-Jun-26 09:33N 36°02' W 005°21'9 8.7
2015-Jun-26 08:32N 36°11' W 005°24'0 0.0
2015-Jun-25 09:07N 36°11' W 005°24'1 0.1
2015-Jun-25 00:17N 36°10' W 005°25'3 1.7
2015-Jun-24 22:33N 36°08' W 005°23'10 9.9
2015-Jun-24 21:33N 35°58' W 005°27'22611.6
2015-Jun-24 02:05N 37°23' W 009°48'5213.1
2015-Jun-23 22:09N 38°13' W 010°03'813.0
2015-Jun-23 21:33N 38°21' W 010°05'1312.7
2015-Jun-23 20:33N 38°33' W 010°09'1313.0
2015-Jun-23 19:33N 38°46' W 010°11'612.7
2015-Jun-23 19:05N 38°52' W 010°11'94 2.3
2015-Jun-22 02:14N 40°19' W 009°25'1312.5
2015-Jun-22 01:14N 40°07' W 009°31'812.3
2015-Jun-22 00:33N 39°59' W 009°35'1212.4
2015-Jun-21 23:33N 39°48' W 009°41'1212.2
2015-Jun-21 22:33N 39°37' W 009°47'1212.1
2015-Jun-21 21:33N 39°25' W 009°49'1211.8
2015-Jun-21 20:33N 39°13' W 009°50'1211.7
2015-Jun-21 19:33N 39°01' W 009°49'1212.2
2015-Jun-21 18:33N 38°49' W 009°49'1211.8
2015-Jun-21 17:33N 38°37' W 009°48'1212.1
2015-Jun-21 16:33N 38°25' W 009°44'1212.1
2015-Jun-21 15:33N 38°14' W 009°41'1212.3
2015-Jun-21 14:33N 38°02' W 009°37'1212.5
2015-Jun-21 13:33N 37°50' W 009°34'1212.5
2015-Jun-21 12:33N 37°37' W 009°30'1312.7
2015-Jun-21 11:33N 37°25' W 009°27'1412.7
2015-Jun-21 10:27N 37°11' W 009°23'1112.4
2015-Jun-21 09:33N 37°00' W 009°20'1211.9
2015-Jun-21 08:32N 36°50' W 009°13'1211.9
2015-Jun-21 07:30N 36°43' W 009°00'1212.3
2015-Jun-21 06:33N 36°41' W 008°46'1312.4
2015-Jun-21 05:30N 36°40' W 008°30'1313.0
2015-Jun-21 04:31N 36°40' W 008°14'1312.8
2015-Jun-21 03:29N 36°39' W 007°57'1212.8
2015-Jun-21 02:33N 36°40' W 007°42'1613.0
2015-Jun-21 01:19N 36°42' W 007°23'1512.8
2015-Jun-21 00:07N 36°45' W 007°04'3212.5
2015-Jun-20 21:32N 36°47' W 006°23'  

Dump ship's entire track history